Time;durP1;ratioP1;P1;durP2;ratioP2;P2;SDS_P1;SDS_P2;PMS_P1;PMS_P2;Temp;Humidity;BMP_temperature;BMP_pressure;BME280_temperature;BME280_humidity;BME280_pressure;Samples;Min_cycle;Max_cycle;Signal;HPM_P1;HPM_P2
2022/09/12 00:01:02;;;;;;;16.90;13.93;;;;;;;13.70;90.68;100530.72;5099429;28;20534;-65
2022/09/12 00:03:29;;;;;;;15.27;13.37;;;;;;;13.83;90.62;100528.47;5106861;28;20427;-65
2022/09/12 00:05:56;;;;;;;17.07;14.50;;;;;;;13.80;90.42;100525.25;5110711;28;20475;-64
2022/09/12 00:08:22;;;;;;;14.47;12.87;;;;;;;13.70;90.29;100530.72;5101445;28;21061;-65
2022/09/12 00:10:50;;;;;;;17.07;13.83;;;;;;;13.67;90.34;100518.44;5114273;28;20502;-64
2022/09/12 00:13:17;;;;;;;16.47;14.67;;;;;;;13.68;90.35;100511.19;5108335;28;20443;-64
2022/09/12 00:15:45;;;;;;;18.53;14.57;;;;;;;13.73;90.58;100527.72;5106692;28;20479;-64
2022/09/12 00:18:16;;;;;;;17.40;12.87;;;;;;;13.67;90.31;100514.91;5103047;28;20463;-64
2022/09/12 00:20:43;;;;;;;19.60;13.30;;;;;;;13.59;89.75;100514.81;5110298;28;20502;-64
2022/09/12 00:23:10;;;;;;;17.90;14.60;;;;;;;13.51;89.70;100520.97;5114053;28;20479;-64
2022/09/12 00:25:41;;;;;;;16.53;13.40;;;;;;;13.46;89.89;100512.53;5101034;28;20459;-64
2022/09/12 00:28:09;;;;;;;16.23;12.90;;;;;;;13.44;89.71;100519.91;5100273;28;20447;-64
2022/09/12 00:30:40;;;;;;;18.30;14.17;;;;;;;13.47;89.91;100512.38;5106981;28;20502;-63
2022/09/12 00:33:07;;;;;;;19.00;15.80;;;;;;;13.42;89.89;100516.50;5102014;28;20461;-64
2022/09/12 00:35:34;;;;;;;17.47;14.17;;;;;;;13.43;90.09;100521.72;5109233;28;20474;-64
2022/09/12 00:38:00;;;;;;;21.93;15.40;;;;;;;13.40;90.17;100510.44;5116384;28;20503;-64
2022/09/12 00:40:27;;;;;;;18.83;15.20;;;;;;;13.41;90.41;100515.66;5116823;28;20666;-64
2022/09/12 00:42:54;;;;;;;17.27;14.07;;;;;;;13.34;90.24;100514.59;5117890;28;20474;-64
2022/09/12 00:45:26;;;;;;;16.73;14.13;;;;;;;13.28;90.46;100509.78;5101148;28;20478;-64
2022/09/12 00:47:53;;;;;;;16.47;14.27;;;;;;;13.31;90.06;100509.47;5100097;28;21121;-64
2022/09/12 00:50:20;;;;;;;18.07;15.73;;;;;;;13.34;90.29;100511.91;5109307;28;20451;-64
2022/09/12 00:52:49;;;;;;;19.70;16.50;;;;;;;13.27;90.01;100502.75;5103151;28;20455;-64
2022/09/12 00:55:17;;;;;;;19.27;15.00;;;;;;;13.22;90.10;100510.41;5107958;28;20440;-64
2022/09/12 00:57:50;;;;;;;20.63;16.27;;;;;;;13.22;90.55;100511.25;5102449;28;20522;-64
2022/09/12 01:00:18;;;;;;;18.53;15.50;;;;;;;13.34;90.32;100502.00;5117587;28;21108;-64
2022/09/12 01:02:49;;;;;;;18.13;14.20;;;;;;;13.25;89.87;100504.75;5115350;28;20462;-64
2022/09/12 01:05:16;;;;;;;19.00;15.53;;;;;;;13.22;90.11;100502.34;5121125;28;20937;-65
2022/09/12 01:07:47;;;;;;;17.90;16.00;;;;;;;13.15;90.10;100497.56;5116348;28;20450;-63
2022/09/12 01:10:14;;;;;;;18.67;15.20;;;;;;;13.10;90.36;100497.19;5114842;28;20498;-64
2022/09/12 01:12:41;;;;;;;18.30;14.20;;;;;;;13.14;90.51;100495.91;5120425;28;20462;-64
2022/09/12 01:15:09;;;;;;;16.03;14.33;;;;;;;13.12;90.16;100497.03;5103534;28;20454;-64
2022/09/12 01:17:44;;;;;;;20.10;16.70;;;;;;;13.06;90.27;100497.66;5115506;28;20474;-64
2022/09/12 01:21:05;;;;;;;19.07;15.77;;;;;;;12.97;90.44;100497.56;5103097;28;20504;-64
2022/09/12 01:24:06;;;;;;;20.13;15.60;;;;;;;13.00;90.47;100493.72;5093964;28;20471;-64
2022/09/12 01:26:52;;;;;;;17.80;14.97;;;;;;;13.01;91.13;100492.72;5057834;28;20522;-64
2022/09/12 01:29:33;;;;;;;23.20;16.83;;;;;;;13.04;91.04;100487.06;5119360;28;20956;-64
2022/09/12 01:32:08;;;;;;;20.00;16.20;;;;;;;13.02;90.93;100486.38;5109854;28;20501;-64
2022/09/12 01:34:38;;;;;;;20.70;17.77;;;;;;;12.99;90.96;100489.34;5100830;28;20462;-63
2022/09/12 01:37:10;;;;;;;16.83;13.90;;;;;;;13.00;90.60;100485.66;5081391;28;20556;-64
2022/09/12 01:39:40;;;;;;;19.90;14.50;;;;;;;12.93;90.60;100498.00;5083216;28;20431;-64
2022/09/12 01:42:11;;;;;;;18.03;15.00;;;;;;;12.86;90.62;100483.50;5097545;28;20477;-64
2022/09/12 01:44:42;;;;;;;18.80;12.83;;;;;;;12.84;90.55;100480.94;5108239;28;20443;-64
2022/09/12 01:47:12;;;;;;;15.07;13.27;;;;;;;12.87;90.30;100479.81;5099000;28;21075;-64
2022/09/12 01:49:46;;;;;;;15.00;12.57;;;;;;;12.84;90.15;100480.13;5099964;28;20486;-64
2022/09/12 01:52:17;;;;;;;18.77;13.67;;;;;;;12.89;90.13;100477.84;5098775;28;20471;-64
2022/09/12 01:54:47;;;;;;;15.10;12.90;;;;;;;12.75;89.90;100471.97;5118565;28;20442;-64
2022/09/12 01:57:18;;;;;;;19.60;13.20;;;;;;;12.72;90.12;100476.78;5106717;28;20685;-64
2022/09/12 01:59:48;;;;;;;15.47;13.80;;;;;;;12.70;90.07;100468.03;5093437;28;20551;-65
2022/09/12 02:02:20;;;;;;;18.47;14.07;;;;;;;12.68;90.21;100470.88;5114598;28;20557;-64
2022/09/12 02:04:51;;;;;;;16.23;14.00;;;;;;;12.69;90.29;100463.66;5096764;28;20474;-65
2022/09/12 02:07:20;;;;;;;17.30;14.63;;;;;;;12.71;90.17;100453.66;5105990;28;20599;-66
2022/09/12 02:09:50;;;;;;;17.97;15.20;;;;;;;12.67;90.11;100454.91;5120357;28;20442;-65
2022/09/12 02:12:20;;;;;;;20.90;15.37;;;;;;;12.67;90.47;100455.75;5103433;28;20517;-67
2022/09/12 02:14:51;;;;;;;20.33;15.57;;;;;;;12.63;90.06;100451.69;5095619;28;20440;-66
2022/09/12 02:17:21;;;;;;;18.03;13.90;;;;;;;12.63;90.59;100452.53;5093415;28;20508;-67
2022/09/12 02:19:52;;;;;;;16.60;12.17;;;;;;;12.88;89.64;100450.16;5108631;28;20445;-66
2022/09/12 02:22:21;;;;;;;19.27;14.80;;;;;;;12.73;89.54;100452.50;5099166;28;20509;-65
2022/09/12 02:24:50;;;;;;;17.90;13.77;;;;;;;12.60;89.59;100452.00;5099658;28;21177;-64
2022/09/12 02:27:18;;;;;;;20.50;13.80;;;;;;;12.54;90.09;100445.38;5112415;28;20498;-66
2022/09/12 02:29:45;;;;;;;17.83;13.77;;;;;;;12.44;90.09;100449.94;5094389;28;20440;-64
2022/09/12 02:32:18;;;;;;;16.63;14.17;;;;;;;12.41;89.92;100451.09;5116861;28;20510;-64
2022/09/12 02:34:49;;;;;;;21.30;13.37;;;;;;;12.38;89.96;100461.28;5109993;28;20550;-65
2022/09/12 02:37:22;;;;;;;16.53;13.20;;;;;;;12.32;89.58;100457.31;5098898;28;20495;-65
2022/09/12 02:39:49;;;;;;;13.87;11.17;;;;;;;12.26;89.49;100452.56;5110252;28;20474;-65
2022/09/12 02:42:15;;;;;;;16.37;11.30;;;;;;;12.21;89.77;100450.31;5109477;28;20505;-65
2022/09/12 02:44:45;;;;;;;13.60;10.90;;;;;;;12.22;89.77;100453.84;5103372;28;20535;-65
2022/09/12 02:47:17;;;;;;;14.80;10.67;;;;;;;12.24;89.87;100451.88;5105673;28;21118;-64
2022/09/12 02:49:44;;;;;;;13.53;11.67;;;;;;;12.24;89.27;100450.03;5109978;28;20430;-65
2022/09/12 02:52:12;;;;;;;13.73;12.30;;;;;;;12.19;89.33;100448.78;5106017;28;21032;-64
2022/09/12 02:54:39;;;;;;;12.83;11.43;;;;;;;12.15;89.21;100447.38;5103374;28;20633;-64
2022/09/12 02:57:14;;;;;;;12.70;11.40;;;;;;;12.12;89.40;100442.31;5122528;28;20501;-64
2022/09/12 02:59:41;;;;;;;16.63;13.10;;;;;;;12.13;89.21;100444.00;5121799;28;20470;-64
2022/09/12 03:02:17;;;;;;;14.20;10.97;;;;;;;12.08;88.98;100454.31;5087625;28;20478;-64
2022/09/12 03:04:53;;;;;;;14.27;12.20;;;;;;;12.03;89.39;100444.88;5103243;28;20474;-64
2022/09/12 03:07:33;;;;;;;14.40;12.37;;;;;;;12.05;89.32;100442.91;5101856;28;20509;-64
2022/09/12 03:10:04;;;;;;;13.83;12.10;;;;;;;12.04;89.21;100443.03;5103484;28;20458;-65
2022/09/12 03:12:42;;;;;;;15.23;12.00;;;;;;;12.06;89.74;100435.69;5122451;28;20478;-65
2022/09/12 03:15:27;;;;;;;16.23;12.97;;;;;;;12.19;88.94;100441.59;5114496;28;20435;-64
2022/09/12 03:18:06;;;;;;;15.07;11.73;;;;;;;12.03;89.13;100438.66;5117982;28;20445;-64
2022/09/12 03:20:46;;;;;;;13.43;11.00;;;;;;;11.98;89.79;100438.28;5103356;28;20467;-64
2022/09/12 03:23:22;;;;;;;18.07;13.67;;;;;;;11.98;89.79;100433.75;5084473;28;20470;-64
2022/09/12 03:25:52;;;;;;;14.97;11.97;;;;;;;11.90;89.89;100436.28;5102179;28;20486;-64
2022/09/12 03:28:20;;;;;;;16.83;12.30;;;;;;;11.85;89.62;100427.81;5109070;28;20506;-64
2022/09/12 03:30:50;;;;;;;16.97;13.20;;;;;;;11.91;90.23;100431.78;5121997;28;20496;-66
2022/09/12 03:33:18;;;;;;;15.80;12.10;;;;;;;11.92;89.89;100430.81;5122957;28;20464;-64
2022/09/12 03:35:45;;;;;;;18.00;14.83;;;;;;;11.94;89.76;100439.53;5113833;28;20501;-64
2022/09/12 03:38:12;;;;;;;23.30;18.47;;;;;;;11.96;90.26;100434.88;5098331;28;20507;-66
2022/09/12 03:40:40;;;;;;;17.40;14.57;;;;;;;12.01;90.52;100430.78;5108002;28;20470;-66
2022/09/12 03:43:08;;;;;;;19.13;15.03;;;;;;;11.92;90.30;100439.69;5089894;28;20863;-66
2022/09/12 03:45:36;;;;;;;19.37;14.77;;;;;;;11.88;90.30;100432.91;5111563;28;20493;-65
2022/09/12 03:48:03;;;;;;;25.93;17.50;;;;;;;12.07;91.37;100423.16;5101771;28;20450;-65
2022/09/12 03:50:30;;;;;;;21.27;16.40;;;;;;;12.10;91.16;100431.75;5117047;28;20972;-66
2022/09/12 03:52:59;;;;;;;20.33;17.43;;;;;;;12.08;91.33;100432.88;5102466;28;20556;-66
2022/09/12 03:55:26;;;;;;;19.70;15.13;;;;;;;12.04;90.79;100429.63;5109069;28;20451;-65
2022/09/12 03:57:55;;;;;;;21.73;16.13;;;;;;;11.99;91.14;100432.75;5102117;28;20458;-64
2022/09/12 04:00:22;;;;;;;22.73;17.13;;;;;;;11.96;91.41;100432.19;5112987;28;20450;-65
2022/09/12 04:02:53;;;;;;;21.33;17.27;;;;;;;11.97;91.91;100432.06;5104713;28;20434;-67
2022/09/12 04:05:20;;;;;;;25.03;15.43;;;;;;;11.90;91.54;100436.28;5106089;28;20466;-65
2022/09/12 04:07:46;;;;;;;21.47;16.47;;;;;;;11.83;91.16;100435.16;5100518;28;20479;-65
2022/09/12 04:10:13;;;;;;;20.40;14.80;;;;;;;11.77;91.15;100433.03;5095202;28;20435;-65
2022/09/12 04:12:40;;;;;;;20.40;15.43;;;;;;;11.75;91.30;100430.53;5098232;28;20974;-65
2022/09/12 04:15:09;;;;;;;20.23;15.80;;;;;;;11.76;91.05;100442.94;5099372;28;20447;-65
2022/09/12 04:17:36;;;;;;;20.53;15.80;;;;;;;11.71;90.98;100433.63;5098242;28;20443;-65
2022/09/12 04:20:03;;;;;;;19.00;15.60;;;;;;;11.69;90.66;100429.25;5101417;28;21266;-63
2022/09/12 04:22:31;;;;;;;23.70;15.93;;;;;;;11.66;91.09;100437.56;5096050;28;20501;-65
2022/09/12 04:24:58;;;;;;;19.43;15.20;;;;;;;11.66;90.62;100431.38;5097531;28;20454;-65
2022/09/12 04:27:24;;;;;;;26.07;18.13;;;;;;;11.66;90.94;100431.38;5100779;28;20482;-66
2022/09/12 04:29:52;;;;;;;23.97;17.30;;;;;;;11.68;91.27;100424.03;5109293;28;20481;-66
2022/09/12 04:32:21;;;;;;;17.20;14.27;;;;;;;11.71;90.92;100428.28;5111820;28;20546;-67
2022/09/12 04:34:47;;;;;;;21.77;15.30;;;;;;;11.62;90.54;100422.78;5115923;28;20960;-66
2022/09/12 04:37:14;;;;;;;16.47;14.50;;;;;;;11.61;90.78;100437.19;5111173;27;20511;-67
2022/09/12 04:39:41;;;;;;;21.60;17.53;;;;;;;11.65;91.14;100429.72;5096287;28;20467;-66
2022/09/12 04:42:07;;;;;;;23.50;16.53;;;;;;;11.62;91.15;100430.00;5111743;28;21037;-66
2022/09/12 04:44:34;;;;;;;19.67;15.57;;;;;;;11.57;90.91;100430.41;5111412;28;20487;-67
2022/09/12 04:47:02;;;;;;;19.80;16.03;;;;;;;11.58;90.65;100440.16;5097067;28;21008;-67
2022/09/12 04:49:30;;;;;;;18.90;15.17;;;;;;;11.60;90.77;100427.44;5100071;28;20482;-67
2022/09/12 04:51:56;;;;;;;20.93;16.20;;;;;;;11.59;90.79;100428.44;5100100;28;21060;-68
2022/09/12 04:54:23;;;;;;;20.33;16.20;;;;;;;11.60;90.91;100430.13;5099025;28;20492;-67
2022/09/12 04:56:50;;;;;;;19.47;16.93;;;;;;;11.61;90.96;100425.59;5098206;28;20499;-66
2022/09/12 04:59:18;;;;;;;22.57;17.40;;;;;;;11.62;90.71;100425.47;5094128;28;20462;-66
2022/09/12 05:01:45;;;;;;;25.93;16.17;;;;;;;11.69;90.97;100421.22;5093111;28;20467;-66
2022/09/12 05:04:12;;;;;;;19.93;15.87;;;;;;;11.72;91.16;100422.78;5093851;28;20490;-66
2022/09/12 05:06:42;;;;;;;25.40;17.77;;;;;;;11.85;91.28;100425.16;5090727;28;20495;-66
2022/09/12 05:09:11;;;;;;;23.17;16.03;;;;;;;11.98;90.87;100419.53;5107056;28;20470;-66
2022/09/12 05:11:40;;;;;;;26.33;16.37;;;;;;;12.10;90.08;100418.34;5117235;27;20508;-67
2022/09/12 05:14:07;;;;;;;21.60;16.93;;;;;;;12.19;89.30;100422.81;5109179;28;20531;-65
2022/09/12 05:16:33;;;;;;;16.70;14.07;;;;;;;12.29;88.73;100425.47;5097338;28;20586;-65
2022/09/12 05:19:00;;;;;;;17.77;15.13;;;;;;;12.57;88.78;100418.28;5084147;28;20534;-66
2022/09/12 05:21:27;;;;;;;17.83;14.90;;;;;;;12.85;87.50;100410.22;5102469;28;20499;-65
2022/09/12 05:23:58;;;;;;;17.17;15.37;;;;;;;13.16;85.21;100417.91;5082881;28;20474;-66
2022/09/12 05:26:25;;;;;;;27.50;16.10;;;;;;;13.56;83.74;100411.22;5107268;28;20478;-66
2022/09/12 05:28:52;;;;;;;17.60;15.17;;;;;;;13.72;81.66;100408.66;5120853;28;20449;-66
2022/09/12 05:31:20;;;;;;;15.53;13.73;;;;;;;13.72;81.13;100413.19;5096040;28;20474;-67
2022/09/12 05:33:49;;;;;;;17.40;14.90;;;;;;;14.03;80.59;100412.72;5100611;28;20452;-67
2022/09/12 05:36:18;;;;;;;17.30;14.43;;;;;;;13.96;79.28;100422.41;5099439;28;20498;-66
2022/09/12 05:38:45;;;;;;;21.73;14.10;;;;;;;14.24;78.67;100429.28;5100587;28;20467;-66
2022/09/12 05:41:15;;;;;;;17.10;13.80;;;;;;;14.34;78.45;100420.25;5099599;28;20505;-64
2022/09/12 05:43:42;;;;;;;17.20;13.50;;;;;;;14.47;79.22;100416.13;5099846;28;20471;-65
2022/09/12 05:46:11;;;;;;;18.23;14.20;;;;;;;14.48;78.85;100415.13;5098960;28;20463;-66
2022/09/12 05:48:39;;;;;;;17.73;15.30;;;;;;;14.71;78.02;100419.94;5117503;28;20446;-66
2022/09/12 05:51:08;;;;;;;17.73;13.30;;;;;;;15.14;75.91;100418.03;5119476;28;20496;-67
2022/09/12 05:53:35;;;;;;;15.20;12.27;;;;;;;15.89;73.58;100406.25;5120764;28;20445;-67
2022/09/12 05:56:07;;;;;;;13.10;11.53;;;;;;;16.76;69.92;100419.75;5120044;28;20541;-67
2022/09/12 05:58:37;;;;;;;15.40;12.00;;;;;;;17.88;65.60;100421.19;5120495;28;20438;-66
2022/09/12 06:01:06;;;;;;;12.23;10.60;;;;;;;18.12;63.33;100411.13;5097692;28;20473;-66
2022/09/12 06:03:34;;;;;;;11.60;9.73;;;;;;;18.69;61.83;100415.81;5079565;28;20434;-66
2022/09/12 06:06:04;;;;;;;11.30;10.13;;;;;;;18.69;61.68;100421.25;5079046;28;20507;-66
2022/09/12 06:08:32;;;;;;;11.50;10.40;;;;;;;18.63;61.31;100417.44;5080128;28;20463;-67
2022/09/12 06:11:00;;;;;;;13.30;10.33;;;;;;;18.83;60.50;100424.97;5079486;28;20595;-67
2022/09/12 06:13:26;;;;;;;12.47;10.83;;;;;;;18.93;60.47;100419.28;5079705;28;20429;-66
2022/09/12 06:15:54;;;;;;;10.93;9.93;;;;;;;19.26;59.38;100422.31;5079199;28;20473;-67
2022/09/12 06:18:21;;;;;;;13.53;11.00;;;;;;;19.58;57.46;100420.09;5078849;28;20492;-67
2022/09/12 06:20:48;;;;;;;11.10;10.00;;;;;;;19.32;58.79;100412.56;5078763;28;20542;-67
2022/09/12 06:23:14;;;;;;;12.03;10.67;;;;;;;20.24;56.07;100413.50;5080196;28;20539;-66
2022/09/12 06:25:47;;;;;;;10.50;9.37;;;;;;;20.30;55.91;100401.88;5078972;28;20473;-68
2022/09/12 06:28:13;;;;;;;11.33;9.73;;;;;;;19.86;57.18;100398.47;5083864;28;20466;-67
2022/09/12 06:30:40;;;;;;;12.90;10.87;;;;;;;19.96;56.63;100403.53;5094586;28;20469;-67
2022/09/12 06:33:08;;;;;;;11.20;10.00;;;;;;;20.43;55.56;100403.78;5104089;28;20451;-69
2022/09/12 06:35:36;;;;;;;11.50;10.40;;;;;;;19.54;57.56;100402.56;5102416;28;20499;-67
2022/09/12 06:38:03;;;;;;;11.10;9.67;;;;;;;20.75;54.51;100405.00;5103607;28;20445;-67
2022/09/12 06:40:29;;;;;;;11.20;10.20;;;;;;;21.46;51.91;100398.28;5102715;28;20464;-66
2022/09/12 06:42:56;;;;;;;10.77;9.77;;;;;;;20.82;54.24;100392.28;5103208;28;20476;-66
2022/09/12 06:45:26;;;;;;;11.40;9.60;;;;;;;20.91;54.24;100395.66;5102478;28;20462;-66
2022/09/12 06:47:53;;;;;;;10.00;9.00;;;;;;;22.14;51.30;100391.72;5100925;28;20456;-66
2022/09/12 06:50:21;;;;;;;9.63;8.80;;;;;;;20.98;54.40;100393.78;5095355;28;20591;-67
2022/09/12 06:52:49;;;;;;;10.23;9.23;;;;;;;22.22;50.41;100399.69;5094030;28;20443;-66
2022/09/12 06:55:16;;;;;;;11.27;8.97;;;;;;;21.60;52.36;100402.69;5102111;28;20426;-67
2022/09/12 06:57:43;;;;;;;10.57;9.57;;;;;;;22.32;49.58;100393.78;5101831;28;20453;-67
2022/09/12 07:00:11;;;;;;;9.70;8.80;;;;;;;22.22;50.17;100398.81;5099941;28;20478;-66
2022/09/12 07:02:37;;;;;;;9.60;8.70;;;;;;;23.84;46.95;100393.94;5101138;28;20433;-68
2022/09/12 07:05:05;;;;;;;10.20;7.93;;;;;;;23.17;47.54;100398.22;5100267;28;20441;-68
2022/09/12 07:07:34;;;;;;;9.27;8.20;;;;;;;22.88;48.09;100393.13;5092471;28;20458;-67
2022/09/12 07:10:01;;;;;;;8.30;7.50;;;;;;;23.03;48.38;100402.91;5102275;28;20430;-66
2022/09/12 07:12:28;;;;;;;9.90;9.00;;;;;;;23.26;47.67;100405.94;5099815;28;20498;-66
2022/09/12 07:14:55;;;;;;;8.97;8.17;;;;;;;23.48;48.25;100405.56;5096375;28;20521;-66
2022/09/12 07:17:21;;;;;;;9.27;8.47;;;;;;;24.81;44.55;100400.66;5100671;28;20497;-66
2022/09/12 07:19:48;;;;;;;8.93;8.13;;;;;;;25.07;42.91;100396.69;5102057;28;20477;-67
2022/09/12 07:22:14;;;;;;;9.37;8.47;;;;;;;25.61;42.45;100390.41;5100158;28;20561;-67
2022/09/12 07:24:44;;;;;;;8.97;8.07;;;;;;;24.23;45.87;100399.22;5102226;28;20434;-68
2022/09/12 07:27:11;;;;;;;9.07;8.23;;;;;;;23.72;47.01;100398.44;5101495;28;20477;-68
2022/09/12 07:29:38;;;;;;;9.10;7.90;;;;;;;24.99;43.82;100403.31;5100369;28;20427;-69
2022/09/12 07:32:04;;;;;;;8.63;7.83;;;;;;;24.42;45.75;100389.13;5101624;28;20472;-68
2022/09/12 07:34:31;;;;;;;9.20;8.30;;;;;;;24.80;44.42;100391.59;5102204;28;20932;-68
2022/09/12 07:36:58;;;;;;;8.33;7.40;;;;;;;23.50;48.61;100398.84;5099667;28;20538;-68
2022/09/12 07:39:25;;;;;;;8.40;7.57;;;;;;;24.17;47.04;100397.41;5102221;28;20475;-67
2022/09/12 07:41:53;;;;;;;9.60;8.50;;;;;;;23.98;47.36;100391.91;5101003;28;20539;-67
2022/09/12 07:44:20;;;;;;;8.97;8.20;;;;;;;24.48;46.21;100401.88;5100302;28;20436;-68
2022/09/12 07:46:47;;;;;;;11.73;8.37;;;;;;;24.55;46.52;100394.44;5100616;28;20565;-67
2022/09/12 07:49:14;;;;;;;9.60;8.60;;;;;;;24.38;47.09;100402.41;5093674;28;20441;-67
2022/09/12 07:51:40;;;;;;;8.60;7.70;;;;;;;25.25;44.43;100400.44;5098965;28;20526;-67
2022/09/12 07:54:08;;;;;;;8.70;7.80;;;;;;;25.72;43.08;100395.88;5101012;28;21285;-67
2022/09/12 07:56:35;;;;;;;8.53;7.67;;;;;;;25.09;44.61;100397.28;5099964;28;20501;-67
2022/09/12 07:59:03;;;;;;;8.80;7.90;;;;;;;25.06;45.02;100405.13;5097835;28;20430;-66
2022/09/12 08:01:29;;;;;;;8.73;7.83;;;;;;;24.85;45.92;100393.63;5091654;28;20532;-68
2022/09/12 08:03:59;;;;;;;8.00;7.20;;;;;;;25.13;44.59;100403.13;5092580;28;20428;-68
2022/09/12 08:06:27;;;;;;;8.03;7.23;;;;;;;25.03;44.75;100403.69;5098957;28;20485;-69
2022/09/12 08:08:55;;;;;;;9.30;7.00;;;;;;;24.85;46.60;100399.09;5100583;28;20457;-68
2022/09/12 08:11:22;;;;;;;9.40;7.67;;;;;;;26.11;42.85;100409.97;5100172;28;20519;-67
2022/09/12 08:13:50;;;;;;;8.80;7.03;;;;;;;25.47;44.36;100406.22;5097836;28;20465;-68
2022/09/12 08:16:20;;;;;;;8.80;7.90;;;;;;;24.78;45.58;100407.41;5094968;28;20472;-67
2022/09/12 08:18:48;;;;;;;9.90;7.37;;;;;;;24.57;47.03;100406.00;5099309;28;20477;-68
2022/09/12 08:21:16;;;;;;;9.70;7.83;;;;;;;23.80;48.30;100411.81;5098776;28;20513;-68
2022/09/12 08:23:43;;;;;;;9.27;8.10;;;;;;;23.78;48.89;100413.94;5096579;28;20446;-68
2022/09/12 08:26:10;;;;;;;9.23;8.30;;;;;;;23.85;49.01;100416.59;5099529;28;20489;-68
2022/09/12 08:28:39;;;;;;;8.57;7.70;;;;;;;23.21;49.85;100415.81;5097489;28;20479;-67
2022/09/12 08:31:07;;;;;;;8.50;7.67;;;;;;;22.88;51.19;100412.22;5099282;28;20503;-67
2022/09/12 08:33:36;;;;;;;11.97;7.80;;;;;;;22.44;52.49;100404.88;5100638;28;20425;-66
2022/09/12 08:36:04;;;;;;;8.63;7.63;;;;;;;21.65;55.06;100409.38;5098268;28;20511;-66
2022/09/12 08:38:33;;;;;;;9.07;8.17;;;;;;;21.78;55.24;100393.88;5100560;28;20452;-68
2022/09/12 08:41:05;;;;;;;8.93;7.87;;;;;;;22.11;55.13;100398.41;5099286;28;20481;-67
2022/09/12 08:43:45;;;;;;;10.70;7.73;;;;;;;22.05;55.69;100393.84;5099226;28;20558;-67
2022/09/12 08:46:18;;;;;;;8.43;7.63;;;;;;;22.34;54.75;100387.09;5099560;28;20484;-68
2022/09/12 08:48:50;;;;;;;8.40;7.50;;;;;;;22.21;56.29;100397.16;5091720;28;20449;-66
2022/09/12 08:51:18;;;;;;;7.00;6.30;;;;;;;22.33;55.41;100392.75;5098491;28;20484;-66
2022/09/12 08:53:46;;;;;;;8.17;6.17;;;;;;;22.64;53.69;100397.44;5100377;28;20427;-67
2022/09/12 08:56:13;;;;;;;8.70;6.97;;;;;;;22.56;54.00;100405.88;5084434;27;20472;-66
2022/09/12 08:58:42;;;;;;;8.00;6.90;;;;;;;22.62;52.79;100405.00;5097045;28;20457;-68
2022/09/12 09:01:11;;;;;;;8.90;6.40;;;;;;;21.92;54.84;100399.31;5092426;28;20485;-66
2022/09/12 09:04:10;;;;;;;10.03;7.60;;;;;;;22.86;52.02;100397.97;5088152;28;20472;-67
2022/09/12 09:06:52;;;;;;;7.30;6.60;;;;;;;23.14;52.53;100396.78;5059603;28;20493;-66
2022/09/12 09:09:28;;;;;;;7.17;6.57;;;;;;;23.13;53.09;100387.75;5095905;28;20448;-68
2022/09/12 09:12:02;;;;;;;7.17;6.10;;;;;;;23.79;50.90;100392.91;5087509;28;20487;-67
2022/09/12 09:14:47;;;;;;;7.37;5.87;;;;;;;24.13;49.79;100390.69;5095677;28;20483;-67
2022/09/12 09:17:20;;;;;;;7.83;6.50;;;;;;;23.72;50.54;100392.16;5096253;28;20507;-67
2022/09/12 09:19:50;;;;;;;10.97;6.77;;;;;;;23.70;50.44;100386.91;5096296;28;20926;-67
2022/09/12 09:22:21;;;;;;;7.27;6.50;;;;;;;24.25;49.62;100384.28;5098354;28;20469;-67
2022/09/12 09:24:49;;;;;;;6.80;6.10;;;;;;;23.77;50.97;100384.94;5099619;28;20425;-67
2022/09/12 09:27:32;;;;;;;6.80;5.80;;;;;;;24.46;48.93;100382.16;5097853;28;20483;-69
2022/09/12 09:29:58;;;;;;;8.67;7.77;;;;;;;24.55;48.69;100377.22;5099535;28;20434;-68
2022/09/12 09:32:27;;;;;;;8.87;6.33;;;;;;;24.71;48.34;100373.03;5097966;28;20504;-68
2022/09/12 09:34:55;;;;;;;6.97;6.13;;;;;;;25.11;47.73;100375.19;5092881;28;20481;-68
2022/09/12 09:37:29;;;;;;;6.50;5.80;;;;;;;24.97;48.51;100374.53;5098416;28;20526;-68
2022/09/12 09:40:05;;;;;;;6.20;5.50;;;;;;;24.42;48.82;100367.25;5099101;28;20496;-68
2022/09/12 09:42:41;;;;;;;5.60;4.93;;;;;;;24.29;48.78;100375.63;5097264;28;20579;-68
2022/09/12 09:45:14;;;;;;;6.23;5.37;;;;;;;24.65;47.65;100372.06;5098654;28;20432;-68
2022/09/12 09:47:41;;;;;;;7.77;5.97;;;;;;;24.22;47.79;100364.78;5091392;28;20512;-69
2022/09/12 09:50:15;;;;;;;7.10;5.00;;;;;;;24.98;46.27;100366.09;5097639;28;20450;-68
2022/09/12 09:52:42;;;;;;;6.00;5.40;;;;;;;24.05;48.99;100359.91;5098302;28;20468;-68
2022/09/12 09:55:13;;;;;;;5.57;4.67;;;;;;;24.75;48.04;100366.00;5098652;28;20457;-68
2022/09/12 09:57:43;;;;;;;7.00;5.27;;;;;;;24.56;47.60;100357.84;5098306;28;20453;-68
2022/09/12 10:00:29;;;;;;;7.50;5.97;;;;;;;24.05;47.69;100361.81;5099829;28;20469;-69
2022/09/12 10:03:28;;;;;;;6.43;5.03;;;;;;;23.94;48.61;100357.06;5095742;28;20887;-69
2022/09/12 10:05:59;;;;;;;6.67;6.00;;;;;;;23.60;49.32;100362.00;5098382;28;20473;-67
2022/09/12 10:08:28;;;;;;;6.10;4.83;;;;;;;24.23;49.26;100358.22;5098841;28;20461;-66
2022/09/12 10:11:01;;;;;;;5.20;4.70;;;;;;;24.15;49.80;100358.56;5101360;28;20475;-66
2022/09/12 10:13:33;;;;;;;6.60;5.50;;;;;;;24.69;47.83;100356.84;5103521;28;20992;-66
2022/09/12 10:16:02;;;;;;;6.23;5.10;;;;;;;24.57;48.29;100361.44;5100704;27;20500;-68
2022/09/12 10:18:37;;;;;;;5.60;4.33;;;;;;;24.49;44.99;100356.25;5097638;28;20528;-67
2022/09/12 10:21:15;;;;;;;6.23;4.83;;;;;;;24.53;44.32;100349.22;5101589;28;20510;-66
2022/09/12 10:23:45;;;;;;;5.10;4.60;;;;;;;24.30;45.46;100352.69;5103337;28;20973;-66
2022/09/12 10:26:14;;;;;;;7.87;5.23;;;;;;;24.25;44.18;100347.91;5101299;28;20481;-66
2022/09/12 10:28:43;;;;;;;4.93;4.43;;;;;;;24.39;45.23;100343.09;5102955;28;20449;-66
2022/09/12 10:31:13;;;;;;;6.10;4.43;;;;;;;24.30;45.71;100339.84;5100480;28;20511;-66
2022/09/12 10:33:42;;;;;;;5.60;4.67;;;;;;;24.23;44.80;100342.69;5100084;28;20469;-67
2022/09/12 10:36:09;;;;;;;5.33;4.83;;;;;;;24.74;44.18;100326.09;5101242;28;20472;-66
2022/09/12 10:38:37;;;;;;;5.67;4.60;;;;;;;24.95;43.23;100332.94;5102636;28;20472;-67
2022/09/12 10:41:06;;;;;;;7.80;4.87;;;;;;;25.01;42.82;100337.44;5100742;28;20477;-67
2022/09/12 10:43:36;;;;;;;7.40;5.50;;;;;;;24.66;43.40;100332.69;5102840;28;20473;-69
2022/09/12 10:46:21;;;;;;;5.13;4.60;;;;;;;24.89;43.53;100328.38;5101937;28;20548;-67
2022/09/12 10:48:48;;;;;;;5.27;4.37;;;;;;;25.47;42.24;100330.41;5099953;28;20449;-67
2022/09/12 10:51:26;;;;;;;7.77;4.60;;;;;;;25.21;43.14;100330.81;5101385;28;20519;-67
2022/09/12 10:53:56;;;;;;;5.80;5.20;;;;;;;24.50;42.75;100336.06;5103037;28;20433;-69
2022/09/12 10:56:24;;;;;;;6.70;5.47;;;;;;;24.59;43.88;100321.03;5100829;28;20487;-67
2022/09/12 10:59:02;;;;;;;8.33;5.17;;;;;;;25.32;42.42;100330.88;5102157;28;20491;-67
2022/09/12 11:01:39;;;;;;;5.13;4.13;;;;;;;26.07;40.52;100320.28;5094802;28;20521;-66
2022/09/12 11:04:24;;;;;;;6.30;4.97;;;;;;;25.81;40.58;100319.69;5094880;28;20441;-66
2022/09/12 11:06:59;;;;;;;6.17;5.03;;;;;;;27.32;37.36;100327.84;5101348;28;20540;-67
2022/09/12 11:09:34;;;;;;;5.90;5.23;;;;;;;26.93;37.78;100330.47;5101874;28;20428;-66
2022/09/12 11:12:06;;;;;;;7.90;5.63;;;;;;;25.80;40.18;100325.41;5101083;28;20480;-67
2022/09/12 11:14:43;;;;;;;5.70;4.87;;;;;;;25.51;41.36;100320.66;5102881;28;20536;-66
2022/09/12 11:17:18;;;;;;;6.13;4.90;;;;;;;25.94;40.90;100318.63;5105415;28;20540;-66
2022/09/12 11:19:58;;;;;;;7.10;6.20;;;;;;;25.60;40.59;100307.44;5123143;28;20436;-66
2022/09/12 11:22:35;;;;;;;6.23;4.87;;;;;;;26.00;40.49;100306.69;5122073;28;20473;-66
2022/09/12 11:25:18;;;;;;;7.10;5.43;;;;;;;26.08;39.98;100305.50;5105351;28;20590;-67
2022/09/12 11:27:54;;;;;;;10.03;5.80;;;;;;;26.93;39.22;100298.38;5101787;28;20470;-67
2022/09/12 11:30:22;;;;;;;6.07;5.17;;;;;;;27.65;36.19;100304.19;5101806;28;20441;-67